Moapa Valley, Nevada Weather observations

Data are for 10 minute period ending at time listed.
 Day   Time   Solar   Ave.   Ave.  Ave.  Vector  Max.   Baro.   Total    
  of    of     Rad.   Air    Rel.  Wind   Wind   Wind  Press.  Precip.   
Year   Day            Temp.  Hum.  Speed  Dir.   Gust                    
2015   (PST)  Kw/m2    F      %     mph   deg.    mph    mb.     in.     
-------------------------------------------------------------------------
  29   11:50   0.33   66.4    41    6.8   309     9.2   973.4    0.00 
  29   12:00   0.30   66.3    40    5.7   311     8.1   973.2    0.00 
  29   12:10   0.30   66.5    40    5.8   319     8.8   973.1    0.00 
  29   12:20   0.26   66.5    39    6.7   294     9.9   973.0    0.00 
  29   12:30   0.23   66.4    40    5.9   291     8.8   972.8    0.00 
  29   12:40   0.22   66.5    40    6.4   299     8.5   972.6    0.00 
  29   12:50   0.18   66.5    39    6.6   290     8.8   972.5    0.00 
  29   13:00   0.18   66.5    39    6.5   297     9.6   972.3    0.00 
  29   13:10   0.19   66.6    38    6.8   296     8.8   972.1    0.00 
  29   13:20   0.21   66.7    39    7.1   309    10.3   971.9    0.00 
  29   13:30   0.24   66.9    39    6.0   318     8.5   971.8    0.00 
  29   13:40   0.25   67.1    38    7.3   313     9.6   971.7    0.00 
  29   13:50   0.23   67.3    38    7.7   311    11.0   971.4    0.00 
  29   14:00   0.19   67.3    38    8.4   314    12.4   971.1    0.00 
  29   14:10   0.21   67.2    37    8.3   311    11.7   970.8    0.00 
  29   14:20   0.19   67.5    37    4.7   320     9.6   971.0    0.00 
  29   14:30   0.17   67.7    36    3.6   318     6.3   971.1    0.00 
  29   14:40   0.17   67.7    38    3.3   324     4.9   971.1    0.00 
  29   14:50   0.14   67.5    38    4.1   306     5.3   971.0    0.00 
  29   15:00   0.12   67.2    39    4.1   298     6.3   971.1    0.00 
  29   15:10   0.11   67.3    37    4.6   290     6.3   971.1    0.00 
  29   15:20   0.12   67.2    39    4.0   302     6.0   970.9    0.00 
  29   15:30   0.11   67.0    40    2.8   314     4.2   970.8    0.00 
  29   15:40   0.10   67.0    41    2.3   338     3.8   970.8    0.00 
  29   15:50   0.09   66.4    43    3.0     6     3.5   970.7    0.00 
  29   16:00   0.08   66.0    44    3.1   353     3.8   970.7    0.00 
  29   16:10   0.07   65.5    46    2.4    12     3.1   970.7    0.00 
  29   16:20   0.06   65.7    43    2.6   312     3.8   970.6    0.00 
  29   16:30   0.04   65.8    43    3.3   282     3.8   970.5    0.00 
  29   16:40   0.02   64.8    47    2.9   306     3.8   970.5    0.00 
  29   16:50   0.01   64.0    48    3.6   292     4.6   970.5    0.00 
  29   17:00   0.00   63.5    50    2.4   331     4.2   970.5    0.00 
  29   17:10   0.00   62.2    53    2.1   343     3.8   970.5    0.00 
  29   17:20   0.00   62.5    50    4.3   312     5.6   970.5    0.00 
  29   17:30   0.00   62.5    50    5.0   307     6.7   970.6    0.00 
  29   17:40   0.00   62.2    51    3.9   341     5.3   970.7    0.00 
  29   17:50   0.00   61.4    53    2.7   328     4.2   970.8    0.00 
  29   18:00   0.00   61.2    52    0.9   255     2.8   970.8    0.00 
  29   18:10   0.00   61.6    51    4.6   338     7.1   970.7    0.00 
  29   18:20   0.00   62.1    50    3.9   319     6.0   970.8    0.00 
  29   18:30   0.00   61.5    51    3.8   328     5.3   970.9    0.00 
  29   18:40   0.00   60.9    52    4.1   323     5.3   970.9    0.00 
  29   18:50   0.00   60.5    53    3.7   333     5.6   970.8    0.00 
  29   19:00   0.00   60.4    53    2.5   351     3.8   970.8    0.00 
  29   19:10   0.00   60.5    52    3.0     9     4.2   970.9    0.00 
  29   19:20   0.00   59.3    56    2.5     5     3.5   970.9    0.00 
  29   19:30   0.00   59.7    55    3.6    20     4.6   970.9    0.00 
  29   19:40   0.00   59.4    56    2.3   348     3.8   970.9    0.00 
  29   19:50   0.00   59.2    56    2.4   284     4.2   970.9    0.00 
  29   20:00   0.00   59.7    56    4.0   272     5.6   970.8    0.00 
  29   20:10   0.00   59.1    56    4.1   273     5.6   970.6    0.00 
  29   20:20   0.00   59.4    56    2.5   316     4.6   970.7    0.00 
  29   20:30   0.00   58.7    58    2.2    14     3.8   970.7    0.00 
  29   20:40   0.00   57.7    61    2.6   300     3.8   970.7    0.00 
  29   20:50   0.00   58.1    61    2.6     7     4.2   970.7    0.00 
  29   21:00   0.00   58.2    60    3.4    21     5.3   970.8    0.00 
  29   21:10   0.00   58.5    59    1.7    18     3.8   970.8    0.00 
  29   21:20   0.00   57.7    61    2.4   321     3.1   970.9    0.00 
  29   21:30   0.00   57.1    62    2.2   263     3.5   970.9    0.00 
  29   21:40   0.00   55.9    66    0.1     3     1.0   970.9    0.00 
  29   21:50   0.00   55.0    68    1.7   269     3.5   970.8    0.00 
  29   22:00   0.00   55.9    66    2.6   272     3.8   970.8    0.00 
  29   22:10   0.00   55.8    66    2.4   280     3.8   970.8    0.00 
  29   22:20   0.00   55.5    67    2.1   309     2.8   970.8    0.00 
  29   22:30   0.00   55.2    68    1.8   307     2.4   970.7    0.00 
  29   22:40   0.00   55.4    69    1.1    12     2.4   970.8    0.00 
  29   22:50   0.00   55.6    67    1.9     5     3.8   970.7    0.00 
  29   23:00   0.00   57.1    62    3.4   356     4.6   970.7    0.00 
  29   23:10   0.00   57.6    61    3.5   347     4.6   970.6    0.00 
  29   23:20   0.00   57.1    63    2.8   355     4.2   970.6    0.00 
  29   23:30   0.00   56.5    64    1.8   131     3.8   970.7    0.00 
  29   23:40   0.00   57.7    60    3.5   338     4.9   970.6    0.00 
  29   23:50   0.00   57.3    62    2.5     7     3.8   970.5    0.00 
  30    0:00   0.00   56.5    66    3.6   352     4.6   970.4    0.00 
  30    0:10   0.00   56.1    66    2.8   113     4.9   970.4    0.00 
  30    0:20   0.00   57.3    61    1.6   334     3.5   970.3    0.00 
  30    0:30   0.00   58.4    58    4.2     6     7.4   970.2    0.00 
  30    0:40   0.00   57.8    61    3.3   349     4.6   970.2    0.00 
  30    0:50   0.00   57.5    62    3.8   344     5.3   970.2    0.00 
  30    1:00   0.00   57.5    62    4.2   338     6.0   970.1    0.00 
  30    1:10   0.00   57.5    60    2.3   300     3.5   970.2    0.00 
  30    1:20   0.00   58.0    60    2.2   315     6.0   970.1    0.00 
  30    1:30   0.00   58.4    58    5.9   322    12.1   969.9    0.00 
  30    1:40   0.00   58.3    59    2.2   227     3.5   970.0    0.00 
  30    1:50   0.00   58.0    59    2.0   221     3.1   969.9    0.00 
  30    2:00   0.00   57.3    62    1.3   244     2.8   969.8    0.00 
  30    2:10   0.00   56.8    63    2.6   319     4.2   969.7    0.00 
  30    2:20   0.00   55.9    67    2.5   310     4.2   969.6    0.00 
  30    2:30   0.00   56.2    66    2.4   302     3.8   969.4    0.00 
  30    2:40   0.00   57.6    62    2.2   293     3.5   969.3    0.00 
  30    2:50   0.00   57.3    64    3.4   320     5.3   969.2    0.00 
  30    3:00   0.00   57.4    64    3.4   348     4.9   969.2    0.00 
  30    3:10   0.00   57.7    63    1.9   343     3.1   969.0    0.00 
  30    3:20   0.00   57.5    64    3.6   347     7.4   968.8    0.00 
  30    3:30   0.00   59.2    59    8.2    19    13.8   968.7    0.00 
  30    3:40   0.00   59.5    58    8.0    20    12.4   968.5    0.00 
  30    3:50   0.00   59.5    59    9.0     8    13.8   968.5    0.00 
  30    4:00   0.00   58.8    61    6.8   356    11.0   968.4    0.00 
  30    4:10   0.00   58.4    62    5.9   348     8.8   968.3    0.00 
  30    4:20   0.00   58.6    61    8.0   350    11.3   968.2    0.00 
  30    4:30   0.00   58.9    60    9.6   359    15.3   968.0    0.00 
  30    4:40   0.00   58.7    61   11.1     2    16.0   968.0    0.00 
  30    4:50   0.00   58.4    62   10.5     7    16.0   968.0    0.00 
  30    5:00   0.00   58.2    63    9.8     7    14.2   968.0    0.00 
  30    5:10   0.00   58.0    64    9.8     2    15.3   967.9    0.00 
  30    5:20   0.00   57.8    64    9.5     6    13.8   967.9    0.00 
  30    5:30   0.00   57.7    65    9.8     6    15.3   967.8    0.00 
  30    5:40   0.00   57.4    66    8.3     7    12.1   967.8    0.00 
  30    5:50   0.00   57.2    66    7.2     6    10.6   967.8    0.00 
  30    6:00   0.00   57.0    67    6.6     1     9.9   967.8    0.00 
  30    6:10   0.00   56.7    68    5.9   350     9.6   967.6    0.00 
  30    6:20   0.00   56.3    70    4.3   340     6.7   967.6    0.00 
  30    6:30   0.00   56.1    70    3.7   333     5.6   967.5    0.00 
  30    6:40   0.00   56.2    69    4.3   320     6.3   967.5    0.00 
  30    6:50   0.00   56.1    70    4.2   304     5.6   967.6    0.00 
  30    7:00   0.00   55.8    71    3.8   321     6.0   967.6    0.00 
  30    7:10   0.01   55.6    72    3.4   314     5.3   967.5    0.00 
  30    7:20   0.01   55.5    73    3.7   303     5.3   967.5    0.00 
  30    7:30   0.02   55.6    74    3.9   312     5.6   967.5    0.00 
  30    7:40   0.02   55.1    78    3.6   318     6.0   967.6    0.00 
  30    7:50   0.02   54.8    79    4.4   314     5.6   967.5    0.00 
  30    8:00   0.03   54.6    80    4.3   317     6.3   967.5    0.00 
  30    8:10   0.03   54.5    81    4.9   310     7.1   967.5    0.00 
  30    8:20   0.04   54.6    81    4.5   312     7.1   967.5    0.01 
  30    8:30   0.05   54.3    83    4.2   310     6.7   967.4    0.00 
  30    8:40   0.07   54.2    84    4.5   311     6.7   967.4    0.00 
  30    8:50   0.08   54.2    85    4.8   306     7.4   967.3    0.00 
  30    9:00   0.07   54.2    85    4.8   316     7.8   967.3    0.01 
  30    9:10   0.06   54.2    85    5.7   312     8.1   967.3    0.00 
  30    9:20   0.06   54.0    86    5.4   311     7.8   967.3    0.00 
  30    9:30   0.07   53.9    86    6.0   312     8.5   967.2    0.01 
  30    9:40   0.07   53.9    87    6.2   315     9.6   967.2    0.00 
  30    9:50   0.06   53.7    87    7.6   300    11.0   967.2    0.01 
  30   10:00   0.05   53.5    88    7.6   295    10.3   967.2    0.00 
  30   10:10   0.05   53.4    89    6.9   302    10.3   967.3    0.01 
  30   10:20   0.05   53.2    90    5.7   315     8.1   967.2    0.01 
  30   10:30   0.06   53.2    90    5.5   308     8.5   967.0    0.01 
  30   10:40   0.07   53.4    89    6.6   301     8.5   966.8    0.01 
  30   10:50   0.09   53.5    89    7.0   296     9.2   966.7    0.00 
  30   11:00   0.10   53.6    89    7.4   295    10.3   966.6    0.01 
  30   11:10   0.09   53.7    89    7.0   304    10.3   966.4    0.01 
  30   11:20   0.09   53.7    89    6.3   310     9.2   966.3    0.00 
  30   11:30   0.11   53.8    90    5.5   316     8.1   966.2    0.01 
  30   11:40   0.11   53.7    90    5.8   309     8.5   966.0    0.01 

Return to Moapa Valley graphs page.


Western Regional Climate Center,wrcc@dri.edu